< Cyclone 198411 1984 Season Cyclone 198413 >
Cyclone 198412 (ANNETTE)
General InformationTrack Information on Google MapsList of All Images || ResourceGoogle EarthGE AnimationAtom FeedGeoJSON
Detalied Best Track (Time Zone = UTC)
Year Month Day Hour Lat. Long. Pressure (hPa) Wind (kt) Class Image Chart
1984 2 3 12 -9.3 101.1 1002 0 0 Image --
1984 2 3 18 -9.4 100.5 1002 0 0 Image --
1984 2 4 00 -9.5 99.5 1000 0 0 Image --
1984 2 4 06 -9.6 98.5 999 0 0 Image --
1984 2 4 12 -10.0 98.0 999 0 0 Image --
1984 2 4 18 -10.4 97.7 999 0 0 Image --
1984 2 5 00 -10.8 97.5 999 0 0 Image --
1984 2 5 06 -11.2 97.2 998 0 0 Image --
1984 2 5 09 -11.5 96.9 996 0 0 Image --
1984 2 5 12 -12.0 96.5 994 0 0 Image --
1984 2 5 18 -12.4 95.8 994 0 0 Image --
1984 2 6 00 -12.8 94.9 990 0 0 Image --
1984 2 6 06 -13.5 94.5 990 0 0 Image --
1984 2 6 12 -14.6 94.1 985 0 0 Image --
1984 2 6 18 -15.3 93.5 985 0 0 Image --
1984 2 7 00 -15.7 92.6 982 0 0 Image --
1984 2 7 06 -16.0 91.4 980 0 0 Image --
1984 2 7 12 -15.9 90.0 980 0 0 Image --
1984 2 7 18 -16.0 89.1 978 0 0 Image --
1984 2 8 00 -16.4 88.2 980 0 0 Image --
1984 2 8 06 -16.5 87.9 978 0 0 Image --
1984 2 8 12 -16.3 87.6 975 0 0 Image --
1984 2 8 18 -15.5 87.3 973 0 0 Image --
1984 2 9 00 -14.9 87.0 970 0 0 Image --
1984 2 9 06 -14.8 87.2 965 0 0 Image --
1984 2 9 12 -14.9 87.1 965 0 0 Image --
1984 2 9 18 -14.4 87.0 965 0 0 Image --
1984 2 10 00 -14.2 87.5 962 0 0 Image --
1984 2 10 06 -14.4 88.5 960 0 0 Image --
1984 2 10 12 -14.1 89.1 960 0 0 Image --
1984 2 10 18 -14.4 89.7 960 0 0 Image --
1984 2 11 00 -14.9 90.0 960 0 0 Image --
1984 2 11 06 -15.3 90.3 960 0 0 Image --
1984 2 11 12 -15.7 90.1 965 0 0 Image --
1984 2 11 18 -15.6 89.5 965 0 0 Image --
1984 2 12 00 -16.0 88.2 965 0 0 Image --
1984 2 12 06 -16.0 87.9 965 0 0 Image --
1984 2 12 12 -15.8 87.3 965 0 0 Image --
1984 2 12 18 -16.0 86.7 965 0 0 Image --
1984 2 13 00 -16.1 86.1 965 0 0 Image --
1984 2 13 06 -16.3 85.7 965 0 0 Image --
1984 2 13 12 -16.4 85.1 965 0 0 Image --
1984 2 13 18 -16.5 84.8 965 0 0 Image --
1984 2 14 00 -16.9 85.1 965 0 0 Image --
1984 2 14 06 -17.1 85.2 965 0 0 Image --
1984 2 14 12 -17.5 84.8 965 0 0 Image --
1984 2 14 18 -17.7 83.8 965 0 0 Image --
1984 2 15 00 -17.9 83.1 965 0 0 Image --
1984 2 15 06 -18.7 82.7 965 0 0 Image --
1984 2 15 12 -19.1 81.8 965 0 0 Image --
1984 2 15 18 -19.3 80.9 965 0 0 Image --
1984 2 16 00 -19.4 80.2 965 0 0 Image --
1984 2 16 03 -19.4 80.0 965 0 0 Image --
< Cyclone 198411 1984 Season Cyclone 198413 >

Help